sensor_id;sensor_type;location;lat;lon;timestamp;P1;durP1;ratioP1;P2;durP2;ratioP2
23754;SDS011;12057;52.042;6.830;2022-11-18T00:04:15;20.77;;;5.50;;
23754;SDS011;12057;52.042;6.830;2022-11-18T00:09:16;19.07;;;4.40;;
23754;SDS011;12057;52.042;6.830;2022-11-18T00:14:18;21.70;;;5.10;;
23754;SDS011;12057;52.042;6.830;2022-11-18T00:19:24;15.25;;;3.55;;
23754;SDS011;12057;52.042;6.830;2022-11-18T00:24:26;15.93;;;5.53;;
23754;SDS011;12057;52.042;6.830;2022-11-18T00:29:27;13.68;;;4.57;;
23754;SDS011;12057;52.042;6.830;2022-11-18T00:34:29;22.55;;;5.80;;
23754;SDS011;12057;52.042;6.830;2022-11-18T00:39:30;19.57;;;4.93;;
23754;SDS011;12057;52.042;6.830;2022-11-18T00:44:31;16.97;;;5.10;;
23754;SDS011;12057;52.042;6.830;2022-11-18T00:49:32;24.23;;;4.93;;
23754;SDS011;12057;52.042;6.830;2022-11-18T00:54:32;17.37;;;4.63;;
23754;SDS011;12057;52.042;6.830;2022-11-18T00:59:33;20.67;;;4.93;;
23754;SDS011;12057;52.042;6.830;2022-11-18T01:04:34;16.20;;;4.40;;
23754;SDS011;12057;52.042;6.830;2022-11-18T01:09:34;22.10;;;5.47;;
23754;SDS011;12057;52.042;6.830;2022-11-18T01:14:35;14.87;;;4.97;;
23754;SDS011;12057;52.042;6.830;2022-11-18T01:19:36;14.60;;;5.57;;
23754;SDS011;12057;52.042;6.830;2022-11-18T01:24:36;15.23;;;5.60;;
23754;SDS011;12057;52.042;6.830;2022-11-18T01:29:40;19.87;;;5.53;;
23754;SDS011;12057;52.042;6.830;2022-11-18T01:34:41;27.25;;;5.53;;
23754;SDS011;12057;52.042;6.830;2022-11-18T01:39:42;13.50;;;5.40;;
23754;SDS011;12057;52.042;6.830;2022-11-18T01:49:58;30.13;;;8.57;;
23754;SDS011;12057;52.042;6.830;2022-11-18T02:00:05;24.88;;;7.82;;
23754;SDS011;12057;52.042;6.830;2022-11-18T02:10:14;31.02;;;10.05;;
23754;SDS011;12057;52.042;6.830;2022-11-18T02:15:19;36.03;;;13.00;;
23754;SDS011;12057;52.042;6.830;2022-11-18T02:20:30;17.48;;;8.10;;
23754;SDS011;12057;52.042;6.830;2022-11-18T02:26:17;21.80;;;7.07;;
23754;SDS011;12057;52.042;6.830;2022-11-18T02:31:59;19.90;;;6.05;;
23754;SDS011;12057;52.042;6.830;2022-11-18T02:37:30;20.48;;;5.93;;
23754;SDS011;12057;52.042;6.830;2022-11-18T02:42:39;23.52;;;6.97;;
23754;SDS011;12057;52.042;6.830;2022-11-18T02:47:44;17.85;;;6.78;;
23754;SDS011;12057;52.042;6.830;2022-11-18T02:52:47;15.13;;;5.40;;
23754;SDS011;12057;52.042;6.830;2022-11-18T02:57:52;24.05;;;7.45;;
23754;SDS011;12057;52.042;6.830;2022-11-18T03:02:53;15.75;;;5.65;;
23754;SDS011;12057;52.042;6.830;2022-11-18T03:07:55;15.97;;;5.70;;
23754;SDS011;12057;52.042;6.830;2022-11-18T03:13:13;19.77;;;6.45;;
23754;SDS011;12057;52.042;6.830;2022-11-18T03:23:50;22.33;;;5.97;;
23754;SDS011;12057;52.042;6.830;2022-11-18T03:29:07;29.23;;;6.47;;
23754;SDS011;12057;52.042;6.830;2022-11-18T03:34:25;20.63;;;7.32;;
23754;SDS011;12057;52.042;6.830;2022-11-18T03:39:31;24.27;;;7.38;;
23754;SDS011;12057;52.042;6.830;2022-11-18T03:44:36;26.17;;;6.53;;
23754;SDS011;12057;52.042;6.830;2022-11-18T03:49:51;15.35;;;6.75;;
23754;SDS011;12057;52.042;6.830;2022-11-18T03:54:56;21.70;;;6.03;;
23754;SDS011;12057;52.042;6.830;2022-11-18T04:00:04;16.58;;;5.47;;
23754;SDS011;12057;52.042;6.830;2022-11-18T04:05:09;21.17;;;6.18;;
23754;SDS011;12057;52.042;6.830;2022-11-18T04:10:12;21.70;;;6.28;;
23754;SDS011;12057;52.042;6.830;2022-11-18T04:15:14;29.35;;;8.57;;
23754;SDS011;12057;52.042;6.830;2022-11-18T04:25:18;18.90;;;6.85;;
23754;SDS011;12057;52.042;6.830;2022-11-18T04:30:23;23.40;;;6.53;;
23754;SDS011;12057;52.042;6.830;2022-11-18T04:35:24;21.30;;;6.50;;
23754;SDS011;12057;52.042;6.830;2022-11-18T04:40:25;17.17;;;6.88;;
23754;SDS011;12057;52.042;6.830;2022-11-18T04:45:26;34.27;;;6.07;;
23754;SDS011;12057;52.042;6.830;2022-11-18T04:50:26;22.47;;;9.27;;
23754;SDS011;12057;52.042;6.830;2022-11-18T04:55:27;30.53;;;8.57;;
23754;SDS011;12057;52.042;6.830;2022-11-18T05:00:28;19.57;;;8.40;;
23754;SDS011;12057;52.042;6.830;2022-11-18T05:05:28;22.30;;;7.70;;
23754;SDS011;12057;52.042;6.830;2022-11-18T05:10:29;18.37;;;7.93;;
23754;SDS011;12057;52.042;6.830;2022-11-18T05:15:30;19.17;;;8.43;;
23754;SDS011;12057;52.042;6.830;2022-11-18T05:20:31;16.13;;;7.35;;
23754;SDS011;12057;52.042;6.830;2022-11-18T05:25:32;21.93;;;7.67;;
23754;SDS011;12057;52.042;6.830;2022-11-18T05:30:34;25.27;;;7.93;;
23754;SDS011;12057;52.042;6.830;2022-11-18T05:35:35;18.63;;;8.37;;
23754;SDS011;12057;52.042;6.830;2022-11-18T05:40:36;24.25;;;7.60;;
23754;SDS011;12057;52.042;6.830;2022-11-18T05:45:40;26.20;;;7.97;;
23754;SDS011;12057;52.042;6.830;2022-11-18T05:50:45;15.88;;;7.72;;
23754;SDS011;12057;52.042;6.830;2022-11-18T06:00:51;24.67;;;8.43;;
23754;SDS011;12057;52.042;6.830;2022-11-18T06:05:55;17.85;;;7.88;;
23754;SDS011;12057;52.042;6.830;2022-11-18T06:10:59;18.42;;;7.80;;
23754;SDS011;12057;52.042;6.830;2022-11-18T06:16:00;22.25;;;8.40;;
23754;SDS011;12057;52.042;6.830;2022-11-18T06:21:02;27.45;;;9.38;;
23754;SDS011;12057;52.042;6.830;2022-11-18T06:26:04;30.17;;;9.98;;
23754;SDS011;12057;52.042;6.830;2022-11-18T06:31:06;24.27;;;9.90;;
23754;SDS011;12057;52.042;6.830;2022-11-18T06:36:07;26.03;;;9.43;;
23754;SDS011;12057;52.042;6.830;2022-11-18T06:41:08;23.05;;;8.85;;
23754;SDS011;12057;52.042;6.830;2022-11-18T06:46:10;36.30;;;9.63;;
23754;SDS011;12057;52.042;6.830;2022-11-18T06:51:34;22.85;;;9.10;;
23754;SDS011;12057;52.042;6.830;2022-11-18T06:56:34;21.00;;;8.97;;
23754;SDS011;12057;52.042;6.830;2022-11-18T07:01:36;24.03;;;9.57;;
23754;SDS011;12057;52.042;6.830;2022-11-18T07:06:39;27.42;;;10.18;;
23754;SDS011;12057;52.042;6.830;2022-11-18T07:11:39;32.30;;;10.83;;
23754;SDS011;12057;52.042;6.830;2022-11-18T07:16:40;27.37;;;11.20;;
23754;SDS011;12057;52.042;6.830;2022-11-18T07:21:41;23.97;;;10.40;;
23754;SDS011;12057;52.042;6.830;2022-11-18T07:26:42;26.95;;;10.70;;
23754;SDS011;12057;52.042;6.830;2022-11-18T07:31:43;28.73;;;10.60;;
23754;SDS011;12057;52.042;6.830;2022-11-18T07:36:44;34.67;;;10.50;;
23754;SDS011;12057;52.042;6.830;2022-11-18T07:41:45;23.73;;;8.97;;
23754;SDS011;12057;52.042;6.830;2022-11-18T07:46:45;22.03;;;9.23;;
23754;SDS011;12057;52.042;6.830;2022-11-18T07:51:46;30.40;;;10.33;;
23754;SDS011;12057;52.042;6.830;2022-11-18T07:56:47;34.60;;;10.47;;
23754;SDS011;12057;52.042;6.830;2022-11-18T08:01:47;30.20;;;11.27;;
23754;SDS011;12057;52.042;6.830;2022-11-18T08:06:48;21.57;;;10.43;;
23754;SDS011;12057;52.042;6.830;2022-11-18T08:11:48;39.47;;;15.57;;
23754;SDS011;12057;52.042;6.830;2022-11-18T08:16:49;28.83;;;12.90;;
23754;SDS011;12057;52.042;6.830;2022-11-18T08:21:50;29.20;;;12.13;;
23754;SDS011;12057;52.042;6.830;2022-11-18T08:26:51;26.67;;;11.47;;
23754;SDS011;12057;52.042;6.830;2022-11-18T08:31:51;28.03;;;9.87;;
23754;SDS011;12057;52.042;6.830;2022-11-18T08:36:53;34.38;;;10.90;;
23754;SDS011;12057;52.042;6.830;2022-11-18T08:41:57;25.02;;;11.77;;
23754;SDS011;12057;52.042;6.830;2022-11-18T08:46:58;24.45;;;11.38;;
23754;SDS011;12057;52.042;6.830;2022-11-18T08:51:59;32.73;;;10.53;;
23754;SDS011;12057;52.042;6.830;2022-11-18T08:57:00;31.20;;;11.40;;
23754;SDS011;12057;52.042;6.830;2022-11-18T09:02:01;27.47;;;11.23;;
23754;SDS011;12057;52.042;6.830;2022-11-18T09:07:01;35.17;;;10.97;;
23754;SDS011;12057;52.042;6.830;2022-11-18T09:12:02;27.23;;;9.67;;
23754;SDS011;12057;52.042;6.830;2022-11-18T09:17:04;22.77;;;9.20;;
23754;SDS011;12057;52.042;6.830;2022-11-18T09:22:04;17.70;;;8.30;;
23754;SDS011;12057;52.042;6.830;2022-11-18T09:27:06;22.77;;;9.27;;
23754;SDS011;12057;52.042;6.830;2022-11-18T09:32:07;16.25;;;7.95;;
23754;SDS011;12057;52.042;6.830;2022-11-18T09:37:08;20.40;;;7.93;;
23754;SDS011;12057;52.042;6.830;2022-11-18T09:47:34;16.92;;;8.52;;
23754;SDS011;12057;52.042;6.830;2022-11-18T09:52:36;24.15;;;7.93;;
23754;SDS011;12057;52.042;6.830;2022-11-18T09:57:43;18.58;;;7.03;;
23754;SDS011;12057;52.042;6.830;2022-11-18T10:08:24;25.98;;;11.77;;
23754;SDS011;12057;52.042;6.830;2022-11-18T10:24:40;20.35;;;7.63;;
23754;SDS011;12057;52.042;6.830;2022-11-18T10:29:45;26.42;;;7.25;;
23754;SDS011;12057;52.042;6.830;2022-11-18T10:34:53;21.65;;;7.22;;
23754;SDS011;12057;52.042;6.830;2022-11-18T10:39:56;21.50;;;6.28;;
23754;SDS011;12057;52.042;6.830;2022-11-18T10:45:23;20.67;;;5.88;;
23754;SDS011;12057;52.042;6.830;2022-11-18T10:55:33;17.65;;;5.40;;
23754;SDS011;12057;52.042;6.830;2022-11-18T11:05:38;12.95;;;5.40;;
23754;SDS011;12057;52.042;6.830;2022-11-18T11:10:39;23.27;;;5.65;;
23754;SDS011;12057;52.042;6.830;2022-11-18T11:15:40;15.40;;;4.43;;
23754;SDS011;12057;52.042;6.830;2022-11-18T11:20:45;19.40;;;7.05;;
23754;SDS011;12057;52.042;6.830;2022-11-18T11:31:15;13.75;;;5.93;;
23754;SDS011;12057;52.042;6.830;2022-11-18T11:41:30;17.98;;;5.53;;
23754;SDS011;12057;52.042;6.830;2022-11-18T11:47:11;15.55;;;5.70;;
23754;SDS011;12057;52.042;6.830;2022-11-18T11:52:57;16.48;;;6.47;;
23754;SDS011;12057;52.042;6.830;2022-11-18T12:09:06;15.57;;;5.18;;
23754;SDS011;12057;52.042;6.830;2022-11-18T12:14:31;16.58;;;6.82;;
23754;SDS011;12057;52.042;6.830;2022-11-18T12:19:36;18.40;;;7.22;;
23754;SDS011;12057;52.042;6.830;2022-11-18T12:24:39;17.83;;;6.63;;
23754;SDS011;12057;52.042;6.830;2022-11-18T12:29:43;16.95;;;;;
23754;SDS011;12057;52.042;6.830;2022-11-18T12:34:56;13.52;;;6.55;;
23754;SDS011;12057;52.042;6.830;2022-11-18T12:40:32;28.88;;;7.82;;
23754;SDS011;12057;52.042;6.830;2022-11-18T12:50:46;22.42;;;8.43;;
23754;SDS011;12057;52.042;6.830;2022-11-18T12:55:52;26.75;;;9.40;;
23754;SDS011;12057;52.042;6.830;2022-11-18T13:01:03;27.03;;;9.27;;
23754;SDS011;12057;52.042;6.830;2022-11-18T13:11:14;27.17;;;9.88;;
23754;SDS011;12057;52.042;6.830;2022-11-18T13:22:47;28.83;;;12.52;;
23754;SDS011;12057;52.042;6.830;2022-11-18T13:33:36;57.55;;;20.05;;
23754;SDS011;12057;52.042;6.830;2022-11-18T13:39:11;49.15;;;23.83;;
23754;SDS011;12057;52.042;6.830;2022-11-18T13:44:11;74.70;;;33.97;;
23754;SDS011;12057;52.042;6.830;2022-11-18T13:54:54;37.75;;;15.02;;
23754;SDS011;12057;52.042;6.830;2022-11-18T13:59:58;35.53;;;15.70;;
23754;SDS011;12057;52.042;6.830;2022-11-18T14:05:04;44.15;;;21.15;;
23754;SDS011;12057;52.042;6.830;2022-11-18T14:10:09;47.58;;;21.40;;
23754;SDS011;12057;52.042;6.830;2022-11-18T14:15:18;66.22;;;24.83;;
23754;SDS011;12057;52.042;6.830;2022-11-18T14:20:33;55.95;;;25.33;;
23754;SDS011;12057;52.042;6.830;2022-11-18T14:25:34;73.40;;;25.67;;
23754;SDS011;12057;52.042;6.830;2022-11-18T14:30:40;59.20;;;24.70;;
23754;SDS011;12057;52.042;6.830;2022-11-18T14:35:55;67.45;;;26.85;;
23754;SDS011;12057;52.042;6.830;2022-11-18T14:40:59;72.50;;;25.33;;
23754;SDS011;12057;52.042;6.830;2022-11-18T14:46:10;58.78;;;24.67;;
23754;SDS011;12057;52.042;6.830;2022-11-18T14:51:15;57.55;;;24.25;;
23754;SDS011;12057;52.042;6.830;2022-11-18T15:01:19;42.55;;;17.60;;
23754;SDS011;12057;52.042;6.830;2022-11-18T15:06:21;51.17;;;17.45;;
23754;SDS011;12057;52.042;6.830;2022-11-18T15:11:22;38.35;;;17.25;;
23754;SDS011;12057;52.042;6.830;2022-11-18T15:16:23;36.53;;;17.57;;
23754;SDS011;12057;52.042;6.830;2022-11-18T15:21:27;55.92;;;19.15;;
23754;SDS011;12057;52.042;6.830;2022-11-18T15:31:33;52.30;;;19.45;;
23754;SDS011;12057;52.042;6.830;2022-11-18T15:36:33;42.07;;;18.53;;
23754;SDS011;12057;52.042;6.830;2022-11-18T15:41:35;47.38;;;18.88;;
23754;SDS011;12057;52.042;6.830;2022-11-18T15:46:37;37.30;;;17.05;;
23754;SDS011;12057;52.042;6.830;2022-11-18T15:51:39;42.70;;;16.83;;
23754;SDS011;12057;52.042;6.830;2022-11-18T15:56:40;40.53;;;15.90;;
23754;SDS011;12057;52.042;6.830;2022-11-18T16:01:45;43.20;;;15.77;;
23754;SDS011;12057;52.042;6.830;2022-11-18T16:06:48;43.83;;;17.10;;
23754;SDS011;12057;52.042;6.830;2022-11-18T16:11:48;48.70;;;18.93;;
23754;SDS011;12057;52.042;6.830;2022-11-18T16:17:07;47.83;;;18.55;;
23754;SDS011;12057;52.042;6.830;2022-11-18T16:22:08;53.00;;;20.10;;
23754;SDS011;12057;52.042;6.830;2022-11-18T16:27:09;62.20;;;20.90;;
23754;SDS011;12057;52.042;6.830;2022-11-18T16:37:54;54.83;;;19.95;;
23754;SDS011;12057;52.042;6.830;2022-11-18T16:42:55;65.97;;;21.53;;
23754;SDS011;12057;52.042;6.830;2022-11-18T16:47:58;65.57;;;23.50;;
23754;SDS011;12057;52.042;6.830;2022-11-18T16:52:59;66.15;;;22.50;;
23754;SDS011;12057;52.042;6.830;2022-11-18T16:58:00;53.83;;;21.87;;
23754;SDS011;12057;52.042;6.830;2022-11-18T17:03:01;66.88;;;21.02;;
23754;SDS011;12057;52.042;6.830;2022-11-18T17:08:02;62.57;;;21.30;;
23754;SDS011;12057;52.042;6.830;2022-11-18T17:18:47;72.95;;;21.70;;
23754;SDS011;12057;52.042;6.830;2022-11-18T17:23:58;62.40;;;19.52;;
23754;SDS011;12057;52.042;6.830;2022-11-18T17:29:26;55.15;;;18.27;;
23754;SDS011;12057;52.042;6.830;2022-11-18T17:34:26;61.60;;;17.37;;
23754;SDS011;12057;52.042;6.830;2022-11-18T17:39:28;47.95;;;17.30;;
23754;SDS011;12057;52.042;6.830;2022-11-18T17:44:30;47.08;;;17.42;;
23754;SDS011;12057;52.042;6.830;2022-11-18T17:49:31;46.77;;;16.73;;
23754;SDS011;12057;52.042;6.830;2022-11-18T17:54:32;45.87;;;16.37;;
23754;SDS011;12057;52.042;6.830;2022-11-18T17:59:33;47.97;;;16.10;;
23754;SDS011;12057;52.042;6.830;2022-11-18T18:04:39;51.67;;;17.60;;
23754;SDS011;12057;52.042;6.830;2022-11-18T18:09:48;54.50;;;17.58;;
23754;SDS011;12057;52.042;6.830;2022-11-18T18:14:49;48.23;;;17.53;;
23754;SDS011;12057;52.042;6.830;2022-11-18T18:20:08;44.17;;;17.30;;
23754;SDS011;12057;52.042;6.830;2022-11-18T18:25:21;48.87;;;15.33;;
23754;SDS011;12057;52.042;6.830;2022-11-18T18:30:28;43.63;;;16.40;;
23754;SDS011;12057;52.042;6.830;2022-11-18T18:35:39;44.33;;;15.45;;
23754;SDS011;12057;52.042;6.830;2022-11-18T18:40:40;48.28;;;17.13;;
23754;SDS011;12057;52.042;6.830;2022-11-18T18:45:41;51.80;;;18.17;;
23754;SDS011;12057;52.042;6.830;2022-11-18T18:51:09;52.13;;;17.83;;
23754;SDS011;12057;52.042;6.830;2022-11-18T18:56:13;45.42;;;17.35;;
23754;SDS011;12057;52.042;6.830;2022-11-18T19:07:00;55.42;;;18.10;;
23754;SDS011;12057;52.042;6.830;2022-11-18T19:12:13;61.72;;;19.67;;
23754;SDS011;12057;52.042;6.830;2022-11-18T19:17:32;43.72;;;15.93;;
23754;SDS011;12057;52.042;6.830;2022-11-18T19:28:16;43.23;;;15.47;;
23754;SDS011;12057;52.042;6.830;2022-11-18T19:33:17;63.77;;;20.67;;
23754;SDS011;12057;52.042;6.830;2022-11-18T19:38:41;54.00;;;17.60;;
23754;SDS011;12057;52.042;6.830;2022-11-18T19:43:45;43.53;;;16.02;;
23754;SDS011;12057;52.042;6.830;2022-11-18T19:48:46;46.83;;;16.23;;
23754;SDS011;12057;52.042;6.830;2022-11-18T19:53:56;51.50;;;19.00;;
23754;SDS011;12057;52.042;6.830;2022-11-18T19:58:57;47.35;;;17.70;;
23754;SDS011;12057;52.042;6.830;2022-11-18T20:03:58;68.15;;;20.17;;
23754;SDS011;12057;52.042;6.830;2022-11-18T20:09:10;63.67;;;20.88;;
23754;SDS011;12057;52.042;6.830;2022-11-18T20:14:17;57.28;;;20.52;;
23754;SDS011;12057;52.042;6.830;2022-11-18T20:31:29;71.85;;;25.80;;
23754;SDS011;12057;52.042;6.830;2022-11-18T20:36:33;92.93;;;26.90;;
23754;SDS011;12057;52.042;6.830;2022-11-18T20:41:41;69.35;;;23.33;;
23754;SDS011;12057;52.042;6.830;2022-11-18T20:47:01;71.30;;;24.73;;
23754;SDS011;12057;52.042;6.830;2022-11-18T20:52:12;65.68;;;23.75;;
23754;SDS011;12057;52.042;6.830;2022-11-18T20:57:12;59.80;;;22.52;;
23754;SDS011;12057;52.042;6.830;2022-11-18T21:02:19;50.23;;;20.17;;
23754;SDS011;12057;52.042;6.830;2022-11-18T21:07:20;55.90;;;19.63;;
23754;SDS011;12057;52.042;6.830;2022-11-18T21:12:44;52.80;;;20.67;;
23754;SDS011;12057;52.042;6.830;2022-11-18T21:18:04;42.53;;;16.38;;
23754;SDS011;12057;52.042;6.830;2022-11-18T21:23:54;40.30;;;18.92;;
23754;SDS011;12057;52.042;6.830;2022-11-18T21:28:56;43.50;;;17.55;;
23754;SDS011;12057;52.042;6.830;2022-11-18T21:34:02;47.55;;;18.63;;
23754;SDS011;12057;52.042;6.830;2022-11-18T21:39:03;47.50;;;17.48;;
23754;SDS011;12057;52.042;6.830;2022-11-18T21:44:12;43.55;;;18.58;;
23754;SDS011;12057;52.042;6.830;2022-11-18T21:49:13;50.55;;;19.60;;
23754;SDS011;12057;52.042;6.830;2022-11-18T21:54:28;43.63;;;17.88;;
23754;SDS011;12057;52.042;6.830;2022-11-18T21:59:33;48.47;;;19.08;;
23754;SDS011;12057;52.042;6.830;2022-11-18T22:04:34;45.35;;;19.95;;
23754;SDS011;12057;52.042;6.830;2022-11-18T22:09:54;45.88;;;19.52;;
23754;SDS011;12057;52.042;6.830;2022-11-18T22:14:55;45.27;;;20.40;;
23754;SDS011;12057;52.042;6.830;2022-11-18T22:19:56;51.83;;;20.80;;
23754;SDS011;12057;52.042;6.830;2022-11-18T22:24:57;51.42;;;18.98;;
23754;SDS011;12057;52.042;6.830;2022-11-18T22:29:58;49.90;;;19.00;;
23754;SDS011;12057;52.042;6.830;2022-11-18T22:35:17;45.28;;;19.77;;
23754;SDS011;12057;52.042;6.830;2022-11-18T22:40:18;51.60;;;18.23;;
23754;SDS011;12057;52.042;6.830;2022-11-18T22:45:25;39.27;;;17.33;;
23754;SDS011;12057;52.042;6.830;2022-11-18T22:50:54;47.10;;;19.95;;
23754;SDS011;12057;52.042;6.830;2022-11-18T22:56:03;43.88;;;18.77;;
23754;SDS011;12057;52.042;6.830;2022-11-18T23:01:10;39.33;;;17.30;;
23754;SDS011;12057;52.042;6.830;2022-11-18T23:06:16;46.40;;;19.93;;
23754;SDS011;12057;52.042;6.830;2022-11-18T23:11:20;47.70;;;19.02;;
23754;SDS011;12057;52.042;6.830;2022-11-18T23:16:40;43.35;;;18.75;;
23754;SDS011;12057;52.042;6.830;2022-11-18T23:21:44;46.20;;;18.42;;
23754;SDS011;12057;52.042;6.830;2022-11-18T23:26:45;40.63;;;18.58;;
23754;SDS011;12057;52.042;6.830;2022-11-18T23:37:02;51.22;;;20.40;;
23754;SDS011;12057;52.042;6.830;2022-11-18T23:42:03;42.50;;;18.35;;
23754;SDS011;12057;52.042;6.830;2022-11-18T23:47:10;48.03;;;20.58;;
23754;SDS011;12057;52.042;6.830;2022-11-18T23:52:18;50.10;;;21.27;;
23754;SDS011;12057;52.042;6.830;2022-11-18T23:57:27;53.38;;;22.13;;
